Time;durP1;ratioP1;P1;durP2;ratioP2;P2;SDS_P1;SDS_P2;PMS_P1;PMS_P2;Temp;Humidity;BMP_temperature;BMP_pressure;BME280_temperature;BME280_humidity;BME280_pressure;Samples;Min_cycle;Max_cycle;Signal;HPM_P1;HPM_P2
2022/09/27 00:00:43;;;;;;;27.67;4.45;;;;;;;9.19;100.00;100590.13;5029921;28;20026;-79
2022/09/27 00:03:10;;;;;;;20.40;4.13;;;;;;;9.31;100.00;100595.13;5027599;28;20576;-78
2022/09/27 00:05:36;;;;;;;21.48;3.53;;;;;;;9.25;100.00;100585.91;5029589;28;20029;-79
2022/09/27 00:08:02;;;;;;;38.42;6.18;;;;;;;9.23;100.00;100598.66;5013029;28;20506;-80
2022/09/27 00:10:28;;;;;;;22.77;3.88;;;;;;;9.16;100.00;100601.22;4997206;28;20149;-78
2022/09/27 00:12:54;;;;;;;19.63;3.40;;;;;;;9.07;100.00;100596.84;5023795;28;20534;-77
2022/09/27 00:15:19;;;;;;;16.42;3.95;;;;;;;8.94;100.00;100577.75;5030385;28;20049;-79
2022/09/27 00:17:46;;;;;;;24.83;3.80;;;;;;;8.87;100.00;100574.09;5013307;28;20115;-78
2022/09/27 00:20:11;;;;;;;31.05;4.43;;;;;;;8.89;100.00;100578.28;4995123;28;20064;-77
2022/09/27 00:22:37;;;;;;;28.35;3.75;;;;;;;8.78;100.00;100563.34;5013109;28;20026;-78
2022/09/27 00:25:06;;;;;;;17.73;3.67;;;;;;;8.82;100.00;100584.50;5013760;28;20034;-78
2022/09/27 00:27:32;;;;;;;22.83;4.03;;;;;;;8.76;100.00;100578.78;5006535;28;20083;-77
2022/09/27 00:29:57;;;;;;;24.95;4.57;;;;;;;8.62;100.00;100568.72;5013513;28;20029;-79
2022/09/27 00:32:23;;;;;;;26.52;3.53;;;;;;;8.66;100.00;100569.25;5013357;28;20037;-78
2022/09/27 00:34:48;;;;;;;21.83;3.42;;;;;;;8.61;100.00;100572.44;5030930;28;20089;-78
2022/09/27 00:37:14;;;;;;;21.33;3.58;;;;;;;8.63;100.00;100570.41;4996133;28;20465;-78
2022/09/27 00:39:40;;;;;;;22.50;3.42;;;;;;;8.67;100.00;100571.75;5021062;28;20037;-78
2022/09/27 00:42:09;;;;;;;14.63;2.25;;;;;;;8.83;100.00;100578.94;5021006;28;20613;-78
2022/09/27 00:44:38;;;;;;;13.75;2.78;;;;;;;9.03;100.00;100582.13;5015928;28;20064;-77
2022/09/27 00:47:25;;;;;;;25.48;4.47;;;;;;;9.31;100.00;100574.50;5034598;28;20129;-78
2022/09/27 00:50:00;;;;;;;23.63;3.65;;;;;;;9.60;100.00;100573.06;5016964;28;20306;-78
2022/09/27 00:52:47;;;;;;;19.67;2.90;;;;;;;9.72;100.00;100544.00;5025779;28;20410;-79
2022/09/27 00:55:16;;;;;;;20.60;3.20;;;;;;;9.76;100.00;100534.56;5031548;28;20025;-77
2022/09/27 00:57:43;;;;;;;25.60;3.97;;;;;;;9.73;100.00;100537.59;5017010;28;20032;-77
2022/09/27 01:00:11;;;;;;;17.70;4.10;;;;;;;9.67;100.00;100521.19;5032786;28;20021;-77
2022/09/27 01:02:39;;;;;;;25.92;3.72;;;;;;;9.65;100.00;100528.56;5049968;28;20022;-76
2022/09/27 01:05:06;;;;;;;10.80;2.15;;;;;;;9.57;100.00;100546.56;5016805;28;20482;-77
2022/09/27 01:07:31;;;;;;;22.38;3.72;;;;;;;9.43;100.00;100527.50;5000353;28;20037;-77
2022/09/27 01:09:57;;;;;;;16.40;3.05;;;;;;;9.35;100.00;100540.13;5033105;28;20025;-77
2022/09/27 01:12:32;;;;;;;17.98;3.53;;;;;;;9.29;100.00;100530.06;5030241;28;20025;-77
2022/09/27 01:15:20;;;;;;;24.20;4.10;;;;;;;9.13;100.00;100512.16;5016244;28;20373;-77
2022/09/27 01:17:54;;;;;;;19.63;4.13;;;;;;;9.18;100.00;100526.78;5049406;28;20033;-77
2022/09/27 01:20:44;;;;;;;22.15;3.70;;;;;;;9.10;100.00;100536.66;5029412;28;20408;-76
2022/09/27 01:23:13;;;;;;;19.60;3.33;;;;;;;9.03;100.00;100539.22;5016329;28;20029;-77
2022/09/27 01:26:08;;;;;;;11.43;2.60;;;;;;;8.84;100.00;100504.69;5032902;28;20061;-77
2022/09/27 01:29:11;;;;;;;19.77;3.17;;;;;;;8.95;100.00;100529.34;4972145;28;20034;-77
2022/09/27 01:31:56;;;;;;;14.20;3.13;;;;;;;8.85;100.00;100506.41;5027907;28;20052;-78
2022/09/27 01:34:28;;;;;;;23.58;4.30;;;;;;;8.91;100.00;100527.97;5016200;28;20032;-79
2022/09/27 01:37:20;;;;;;;29.05;4.03;;;;;;;8.85;100.00;100509.06;5032245;28;20021;-76
2022/09/27 01:40:00;;;;;;;16.88;2.92;;;;;;;8.91;100.00;100519.94;5002848;28;20084;-79
2022/09/27 01:42:29;;;;;;;19.85;3.45;;;;;;;8.89;100.00;100518.44;5032514;28;20490;-78
2022/09/27 01:45:01;;;;;;;21.17;3.78;;;;;;;8.98;100.00;100522.78;5030664;28;20034;-78
2022/09/27 01:47:39;;;;;;;25.08;3.72;;;;;;;9.00;100.00;100520.78;4991774;28;20025;-78
2022/09/27 01:50:08;;;;;;;20.70;4.70;;;;;;;8.82;100.00;100490.66;5032181;28;20030;-78
2022/09/27 01:52:57;;;;;;;32.17;3.40;;;;;;;9.18;100.00;100520.53;5032021;28;20418;-79
2022/09/27 01:55:26;;;;;;;27.48;3.58;;;;;;;9.33;100.00;100512.63;5037265;28;20056;-76
2022/09/27 01:57:58;;;;;;;23.60;3.95;;;;;;;9.44;100.00;100504.19;5015915;28;20137;-79
2022/09/27 02:00:24;;;;;;;24.08;4.35;;;;;;;9.56;100.00;100499.28;5016217;28;20049;-79
2022/09/27 02:02:54;;;;;;;30.00;4.63;;;;;;;9.68;100.00;100495.16;5018330;28;20052;-78
2022/09/27 02:05:24;;;;;;;24.30;3.80;;;;;;;9.80;100.00;100492.94;5016227;28;20034;-76
2022/09/27 02:07:59;;;;;;;14.75;3.53;;;;;;;9.83;100.00;100484.50;5015284;28;20038;-78
2022/09/27 02:10:31;;;;;;;18.13;4.22;;;;;;;10.08;100.00;100488.72;5032099;28;20100;-78
2022/09/27 02:13:05;;;;;;;20.73;3.47;;;;;;;10.17;100.00;100494.84;5011659;28;20022;-76
2022/09/27 02:15:37;;;;;;;17.67;4.85;;;;;;;10.13;100.00;100478.28;5015750;28;20068;-78
2022/09/27 02:18:28;;;;;;;25.60;4.25;;;;;;;10.44;100.00;100484.59;5015350;28;20091;-78
2022/09/27 02:21:00;;;;;;;23.23;3.42;;;;;;;10.49;100.00;100472.28;5042635;28;20033;-78
2022/09/27 02:23:36;;;;;;;18.90;3.60;;;;;;;10.59;100.00;100473.88;5044423;28;20025;-78
2022/09/27 02:26:07;;;;;;;21.10;4.50;;;;;;;10.66;100.00;100470.25;5012162;28;20111;-78
2022/09/27 02:28:38;;;;;;;30.52;4.70;;;;;;;10.72;100.00;100471.41;5032601;28;20037;-78
2022/09/27 02:31:04;;;;;;;24.50;3.58;;;;;;;10.74;100.00;100458.56;5031456;28;20029;-78
2022/09/27 02:33:34;;;;;;;23.13;3.05;;;;;;;10.82;100.00;100454.97;5019030;28;20048;-78
2022/09/27 02:36:00;;;;;;;24.48;4.35;;;;;;;10.80;100.00;100433.66;5012030;28;20369;-78
2022/09/27 02:38:25;;;;;;;16.15;3.15;;;;;;;10.93;100.00;100441.91;5016819;28;20021;-78
2022/09/27 02:40:51;;;;;;;21.70;3.47;;;;;;;10.97;100.00;100442.34;5031141;28;20071;-76
2022/09/27 02:43:20;;;;;;;19.70;3.03;;;;;;;10.93;100.00;100415.00;5031392;28;20029;-79
2022/09/27 02:46:25;;;;;;;19.65;3.33;;;;;;;11.16;100.00;100441.78;5031227;28;20033;-77
2022/09/27 02:49:03;;;;;;;23.95;4.35;;;;;;;11.19;100.00;100424.44;5026862;28;20028;-76
2022/09/27 02:51:44;;;;;;;18.27;2.50;;;;;;;11.15;100.00;100415.91;5028381;28;20105;-76
2022/09/27 02:54:19;;;;;;;15.68;3.30;;;;;;;11.21;100.00;100415.13;5028863;28;20017;-76
2022/09/27 02:56:59;;;;;;;23.20;3.15;;;;;;;11.21;100.00;100411.63;5026496;28;20057;-78
2022/09/27 02:59:40;;;;;;;12.93;3.13;;;;;;;11.15;100.00;100417.75;5031168;28;20074;-77
2022/09/27 03:02:37;;;;;;;11.82;2.92;;;;;;;11.05;100.00;100396.53;5031814;28;20479;-76
2022/09/27 03:05:06;;;;;;;12.75;2.92;;;;;;;11.16;100.00;100405.97;5028194;28;20029;-76
2022/09/27 03:07:33;;;;;;;17.00;2.95;;;;;;;11.25;100.00;100415.63;4997378;28;20045;-76
2022/09/27 03:09:58;;;;;;;10.30;2.28;;;;;;;11.50;100.00;100416.09;5011840;28;20026;-76
2022/09/27 03:12:27;;;;;;;16.15;2.67;;;;;;;11.58;100.00;100397.13;5030589;28;20034;-76
2022/09/27 03:14:57;;;;;;;14.63;4.88;;;;;;;11.82;100.00;100382.44;5030774;28;20103;-79
2022/09/27 03:17:23;;;;;;;13.35;2.00;;;;;;;11.97;98.30;100395.06;5013826;28;20033;-78
2022/09/27 03:19:48;;;;;;;22.63;3.05;;;;;;;12.05;97.68;100397.63;5030524;28;20041;-79
2022/09/27 03:22:15;;;;;;;18.92;3.65;;;;;;;12.12;96.79;100386.88;5014090;28;20033;-77
2022/09/27 03:24:40;;;;;;;14.85;2.15;;;;;;;12.17;95.86;100390.69;4998437;28;20031;-78
2022/09/27 03:27:06;;;;;;;11.60;2.38;;;;;;;12.18;95.48;100384.25;5021275;28;20257;-78
2022/09/27 03:29:32;;;;;;;15.35;2.28;;;;;;;12.19;96.18;100387.78;5014130;28;20100;-80
2022/09/27 03:31:57;;;;;;;10.13;2.38;;;;;;;12.19;95.88;100385.91;5030456;28;20026;-76
2022/09/27 03:34:23;;;;;;;10.43;1.98;;;;;;;12.26;95.38;100386.78;5030076;28;20032;-77
2022/09/27 03:36:49;;;;;;;13.30;3.25;;;;;;;12.15;96.20;100379.25;5030358;28;20088;-76
2022/09/27 03:39:14;;;;;;;10.73;2.28;;;;;;;12.20;96.25;100397.50;5005676;28;20051;-77
2022/09/27 03:41:40;;;;;;;11.13;2.42;;;;;;;12.17;96.91;100393.38;5013898;28;20056;-76
2022/09/27 03:44:07;;;;;;;16.38;2.58;;;;;;;12.16;96.60;100383.59;5028632;28;20376;-77
2022/09/27 03:46:32;;;;;;;6.47;2.38;;;;;;;12.21;96.44;100383.84;5030102;28;20044;-77
2022/09/27 03:48:58;;;;;;;11.15;2.45;;;;;;;12.22;95.38;100366.63;5013650;28;20495;-77
2022/09/27 03:51:24;;;;;;;10.10;2.40;;;;;;;12.24;95.27;100356.50;5013943;28;20029;-78
2022/09/27 03:53:50;;;;;;;14.98;3.35;;;;;;;12.28;95.25;100349.69;5013611;28;20434;-78
2022/09/27 03:56:15;;;;;;;13.75;1.95;;;;;;;12.30;94.81;100353.03;5030265;28;20064;-77
2022/09/27 03:58:41;;;;;;;10.52;3.05;;;;;;;12.37;94.30;100360.31;5013659;28;20040;-77
2022/09/27 04:01:07;;;;;;;7.63;2.17;;;;;;;12.39;94.04;100361.78;5013027;28;20033;-77
2022/09/27 04:03:33;;;;;;;16.98;3.38;;;;;;;12.40;94.02;100357.22;4997139;28;20033;-77
2022/09/27 04:05:59;;;;;;;9.35;2.30;;;;;;;12.43;93.89;100356.84;4997173;28;20069;-77
2022/09/27 04:08:25;;;;;;;6.93;1.88;;;;;;;12.31;94.20;100337.69;5021933;28;20431;-77
2022/09/27 04:10:50;;;;;;;12.07;3.42;;;;;;;12.35;94.57;100344.34;5013496;28;20040;-78
2022/09/27 04:13:16;;;;;;;49.00;45.70;;;;;;;12.30;95.77;100334.16;5029900;28;20026;-78
2022/09/27 04:15:42;;;;;;;268.35;251.68;;;;;;;12.30;95.85;100336.00;5030776;28;20035;-77
2022/09/27 04:18:08;;;;;;;1999.90;999.90;;;;;;;12.30;96.36;100322.53;5006761;28;20088;-77
2022/09/27 04:20:35;;;;;;;512.65;236.00;;;;;;;12.31;96.92;100327.72;5042867;28;20399;-78
2022/09/27 04:23:00;;;;;;;16.13;4.93;;;;;;;12.32;97.06;100339.34;5013579;28;20030;-78
2022/09/27 04:25:26;;;;;;;13.32;5.82;;;;;;;12.32;97.89;100339.34;5018134;28;20028;-77
2022/09/27 04:27:54;;;;;;;20.77;6.65;;;;;;;12.36;98.37;100335.22;5029612;28;20022;-77
2022/09/27 04:30:23;;;;;;;11.73;5.75;;;;;;;12.41;98.45;100345.41;5013208;28;20036;-78
2022/09/27 04:32:49;;;;;;;16.75;6.15;;;;;;;12.51;98.08;100348.59;5030741;28;20034;-77
2022/09/27 04:37:59;;;;;;;16.08;5.00;;;;;;;12.47;99.07;100341.94;5029779;28;20104;-78
2022/09/27 04:40:25;;;;;;;14.75;4.68;;;;;;;12.44;99.11;100347.72;5029234;28;20112;-77
2022/09/27 04:42:51;;;;;;;14.98;4.65;;;;;;;12.34;99.80;100334.59;5013120;28;20160;-77
2022/09/27 04:45:17;;;;;;;13.05;3.60;;;;;;;12.35;99.98;100338.94;5012738;28;20033;-77
2022/09/27 04:47:45;;;;;;;8.55;5.68;;;;;;;12.26;100.00;100310.50;5029455;28;20037;-77
2022/09/27 04:50:11;;;;;;;18.48;8.10;;;;;;;12.48;99.77;100322.00;5021117;28;20391;-76
2022/09/27 04:52:37;;;;;;;12.30;6.43;;;;;;;12.63;97.23;100325.44;5026804;28;20475;-77
2022/09/27 04:55:03;;;;;;;12.23;5.95;;;;;;;12.58;97.79;100329.75;5029561;28;20025;-77
2022/09/27 04:57:29;;;;;;;8.95;4.40;;;;;;;12.55;97.63;100317.50;5029059;28;20021;-77
2022/09/27 04:59:55;;;;;;;8.93;3.95;;;;;;;12.52;95.24;100290.94;5029284;28;20087;-78
2022/09/27 05:02:20;;;;;;;11.20;5.85;;;;;;;12.58;95.66;100327.06;5013256;28;20022;-79
2022/09/27 05:04:46;;;;;;;8.88;5.13;;;;;;;12.40;96.27;100293.34;5029688;28;20080;-79
2022/09/27 05:07:11;;;;;;;10.60;3.92;;;;;;;12.61;95.09;100316.69;5031313;28;20033;-78
2022/09/27 05:09:37;;;;;;;8.30;3.70;;;;;;;12.56;95.31;100308.38;5028834;28;20442;-79
2022/09/27 05:12:06;;;;;;;8.23;3.47;;;;;;;12.56;94.85;100305.66;5029470;28;20033;-79
2022/09/27 05:14:31;;;;;;;6.93;3.25;;;;;;;12.49;95.43;100311.03;5029567;28;20120;-78
2022/09/27 05:16:57;;;;;;;5.00;2.58;;;;;;;12.40;96.06;100319.47;5031187;28;20042;-78
2022/09/27 05:19:23;;;;;;;8.20;3.10;;;;;;;12.63;93.71;100320.03;5026308;28;20039;-78
2022/09/27 05:21:49;;;;;;;4.45;2.20;;;;;;;12.62;93.59;100317.53;5009827;28;20430;-80
2022/09/27 05:24:15;;;;;;;197.40;103.70;;;;;;;12.76;91.97;100316.56;5017899;28;20061;-77
2022/09/27 05:26:41;;;;;;;8.57;2.00;;;;;;;12.61;92.62;100318.56;5010475;28;20072;-77
2022/09/27 05:29:07;;;;;;;10.02;1.98;;;;;;;12.51;93.63;100308.13;5012656;28;20072;-79
2022/09/27 05:31:32;;;;;;;14.73;2.35;;;;;;;12.53;93.25;100308.78;5031622;28;20033;-77
2022/09/27 05:33:58;;;;;;;10.10;1.92;;;;;;;12.46;93.39;100313.28;5016524;28;20030;-77
2022/09/27 05:36:23;;;;;;;7.60;1.85;;;;;;;12.32;94.44;100297.03;5032663;28;20087;-78
2022/09/27 05:38:49;;;;;;;8.45;2.08;;;;;;;12.28;94.69;100289.56;5029060;28;20542;-77
2022/09/27 05:41:14;;;;;;;7.75;1.60;;;;;;;12.27;94.95;100299.50;5032539;28;20034;-76
2022/09/27 05:43:40;;;;;;;4.70;1.52;;;;;;;12.21;95.69;100281.44;5031769;28;20073;-76
2022/09/27 05:46:06;;;;;;;13.10;1.75;;;;;;;12.28;94.56;100295.78;5032258;28;20036;-79
2022/09/27 05:48:32;;;;;;;9.38;1.60;;;;;;;12.26;95.13;100291.63;5032618;28;20033;-77
2022/09/27 05:50:57;;;;;;;11.65;2.67;;;;;;;12.36;95.27;100302.03;5032385;28;20026;-77
2022/09/27 05:53:23;;;;;;;6.18;1.50;;;;;;;12.32;94.40;100286.25;5015818;28;20030;-77
2022/09/27 05:55:49;;;;;;;6.93;1.95;;;;;;;12.38;94.52;100291.88;5032102;28;20436;-76
2022/09/27 05:58:15;;;;;;;11.05;2.05;;;;;;;12.24;95.05;100275.63;5032086;28;20061;-77
2022/09/27 06:00:42;;;;;;;7.25;1.80;;;;;;;12.28;95.91;100294.97;5029635;28;20423;-76
2022/09/27 06:03:10;;;;;;;7.10;1.95;;;;;;;12.16;96.78;100286.56;5032380;28;20037;-76
2022/09/27 06:05:38;;;;;;;8.82;1.75;;;;;;;12.13;97.44;100286.16;4999435;28;20057;-79
2022/09/27 06:08:09;;;;;;;10.15;2.22;;;;;;;11.87;99.40;100274.16;5028884;28;20463;-76
2022/09/27 06:10:35;;;;;;;11.75;1.73;;;;;;;12.01;98.92;100293.94;5031933;28;20072;-76
2022/09/27 06:13:03;;;;;;;14.13;2.03;;;;;;;11.81;100.00;100281.13;5031948;28;20040;-76
2022/09/27 06:15:31;;;;;;;7.93;2.20;;;;;;;11.75;100.00;100273.84;5032058;28;20030;-77
2022/09/27 06:17:57;;;;;;;9.13;2.20;;;;;;;11.76;100.00;100288.97;5005844;28;20038;-76
2022/09/27 06:20:23;;;;;;;10.60;1.60;;;;;;;11.70;100.00;100292.44;5019152;28;20476;-78
2022/09/27 06:22:49;;;;;;;9.60;1.63;;;;;;;11.62;100.00;100290.72;5015475;28;20060;-77
2022/09/27 06:25:14;;;;;;;7.18;1.52;;;;;;;11.55;100.00;100288.97;5015030;28;20037;-75
2022/09/27 06:27:40;;;;;;;8.52;1.85;;;;;;;11.47;100.00;100295.34;5031748;28;20033;-76
2022/09/27 06:30:06;;;;;;;14.50;1.77;;;;;;;11.31;100.00;100274.88;5031762;28;20416;-76
2022/09/27 06:32:32;;;;;;;6.70;1.38;;;;;;;11.22;100.00;100271.50;5032890;28;20496;-76
2022/09/27 06:34:57;;;;;;;14.98;2.88;;;;;;;11.19;100.00;100271.03;5012183;28;20033;-76
2022/09/27 06:37:26;;;;;;;9.80;2.00;;;;;;;11.15;100.00;100259.84;5031391;28;20100;-75
2022/09/27 06:39:52;;;;;;;6.68;2.20;;;;;;;11.15;100.00;100273.28;5030721;28;20364;-76
2022/09/27 06:42:18;;;;;;;12.30;2.95;;;;;;;11.12;100.00;100262.91;5031171;28;20030;-76
2022/09/27 06:44:48;;;;;;;8.20;1.80;;;;;;;11.08;100.00;100260.78;5030918;28;20029;-76
2022/09/27 06:47:14;;;;;;;7.43;1.88;;;;;;;11.12;100.00;100264.78;5006280;28;20025;-75
2022/09/27 06:49:39;;;;;;;9.05;2.05;;;;;;;11.17;100.00;100265.88;5030979;28;20025;-76
2022/09/27 06:52:05;;;;;;;9.52;1.70;;;;;;;11.15;100.00;100262.53;4998128;28;20459;-77
2022/09/27 06:54:31;;;;;;;6.90;1.42;;;;;;;11.21;100.00;100261.75;5030857;28;20390;-75
2022/09/27 06:56:56;;;;;;;8.10;2.17;;;;;;;11.25;100.00;100262.22;5014788;28;20155;-75
2022/09/27 07:02:06;;;;;;;7.00;1.60;;;;;;;11.31;100.00;100266.81;5019257;28;20030;-75
2022/09/27 07:04:31;;;;;;;7.65;1.65;;;;;;;11.21;100.00;100250.97;5030606;28;20032;-77
2022/09/27 07:06:58;;;;;;;10.45;1.45;;;;;;;11.24;100.00;100257.84;5030534;28;20391;-77
2022/09/27 07:09:23;;;;;;;5.55;1.20;;;;;;;11.20;100.00;100257.41;5028237;28;20029;-77
2022/09/27 07:11:49;;;;;;;12.18;2.08;;;;;;;11.23;100.00;100264.25;4998025;28;20395;-77
2022/09/27 07:14:16;;;;;;;11.23;1.60;;;;;;;11.16;100.00;100256.09;5014128;28;20041;-77
2022/09/27 07:16:42;;;;;;;13.85;1.85;;;;;;;11.20;100.00;100256.56;5030642;28;20038;-77
2022/09/27 07:19:10;;;;;;;10.02;1.80;;;;;;;11.20;100.00;100260.09;5030565;28;20029;-77
2022/09/27 07:21:36;;;;;;;12.05;1.80;;;;;;;11.32;100.00;100271.16;5030019;28;20080;-78
2022/09/27 07:24:02;;;;;;;7.25;1.85;;;;;;;11.35;100.00;100268.13;5013867;28;20411;-77
2022/09/27 07:26:27;;;;;;;11.63;1.48;;;;;;;11.37;100.00;100270.59;5027871;28;20476;-77
2022/09/27 07:28:53;;;;;;;8.82;1.90;;;;;;;11.36;100.00;100280.53;5030097;28;20117;-78
2022/09/27 07:31:19;;;;;;;5.28;1.45;;;;;;;11.30;100.00;100265.16;5030107;28;20116;-77
2022/09/27 07:33:44;;;;;;;5.60;1.20;;;;;;;11.32;100.00;100265.78;5030101;28;20064;-78
2022/09/27 07:36:11;;;;;;;0.93;0.93;;;;;;;11.34;100.00;100279.88;5013703;28;20379;-77
2022/09/27 07:38:37;;;;;;;0.30;0.30;;;;;;;11.38;100.00;100267.72;5030373;28;20039;-76
2022/09/27 07:41:12;;;;;;;1.00;0.50;;;;;;;11.30;100.00;100259.78;4997643;28;20029;-78
2022/09/27 07:43:39;;;;;;;0.65;0.65;;;;;;;11.31;100.00;100274.88;4997669;28;20119;-78
2022/09/27 07:46:05;;;;;;;0.30;0.30;;;;;;;11.22;100.00;100255.34;5017792;28;20053;-77
2022/09/27 07:48:31;;;;;;;0.30;0.30;;;;;;;11.29;100.00;100262.66;4996926;28;20045;-77
2022/09/27 07:50:56;;;;;;;0.30;0.30;;;;;;;11.23;100.00;100267.78;5030229;28;20060;-77
2022/09/27 07:53:23;;;;;;;0.20;0.20;;;;;;;11.20;100.00;100270.03;5013017;28;20483;-76
2022/09/27 07:55:52;;;;;;;0.35;0.35;;;;;;;11.17;100.00;100265.03;5031321;28;20061;-77
2022/09/27 07:58:18;;;;;;;0.30;0.30;;;;;;;11.18;100.00;100270.22;4996464;28;20175;-78
2022/09/27 08:00:44;;;;;;;0.47;0.47;;;;;;;11.18;100.00;100253.22;5045891;28;20195;-77
2022/09/27 08:03:14;;;;;;;0.30;0.30;;;;;;;11.14;100.00;100266.25;5028410;28;20576;-77
2022/09/27 08:05:46;;;;;;;2.78;1.00;;;;;;;11.05;100.00;100271.94;5029909;28;20091;-78
2022/09/27 08:08:12;;;;;;;0.20;0.20;;;;;;;10.97;100.00;100251.38;5013171;28;20116;-77
2022/09/27 08:10:43;;;;;;;0.35;0.35;;;;;;;11.08;100.00;100263.47;5029948;28;20538;-77
2022/09/27 08:13:09;;;;;;;0.30;0.30;;;;;;;11.05;100.00;100264.69;5031349;28;20117;-78
2022/09/27 08:15:37;;;;;;;0.45;0.45;;;;;;;10.96;100.00;100255.91;5013613;28;20157;-77
2022/09/27 08:18:04;;;;;;;0.30;0.30;;;;;;;10.89;100.00;100246.09;5029395;28;20025;-78
2022/09/27 08:20:30;;;;;;;0.20;0.20;;;;;;;10.86;100.00;100247.31;4996825;28;20073;-77
2022/09/27 08:22:55;;;;;;;1.67;0.50;;;;;;;10.84;100.00;100260.13;5013142;28;20029;-77
2022/09/27 08:25:23;;;;;;;0.30;0.30;;;;;;;10.81;100.00;100255.13;5029175;28;20065;-77
2022/09/27 08:28:00;;;;;;;0.30;0.30;;;;;;;10.79;100.00;100254.47;5029556;28;20126;-76
2022/09/27 08:30:27;;;;;;;0.30;0.30;;;;;;;10.79;100.00;100254.47;5029457;28;20033;-78
2022/09/27 08:32:56;;;;;;;0.30;0.30;;;;;;;10.68;100.00;100236.16;5011370;28;20103;-79
2022/09/27 08:35:22;;;;;;;0.30;0.30;;;;;;;10.68;100.00;100244.22;5029351;28;20159;-77
2022/09/27 08:38:06;;;;;;;0.22;0.22;;;;;;;10.56;100.00;100225.88;5013233;28;20120;-77
2022/09/27 08:40:53;;;;;;;0.73;0.57;;;;;;;10.56;100.00;100249.25;5006080;28;20044;-79
2022/09/27 08:43:25;;;;;;;0.30;0.30;;;;;;;10.46;100.00;100238.78;5013001;28;20476;-77
2022/09/27 08:46:03;;;;;;;0.30;0.30;;;;;;;10.54;100.00;100251.28;5029575;28;20033;-77
2022/09/27 08:48:29;;;;;;;0.30;0.30;;;;;;;10.59;100.00;100256.13;5030102;28;20030;-77
2022/09/27 08:50:55;;;;;;;0.35;0.35;;;;;;;10.55;100.00;100248.41;5027539;28;20124;-77
2022/09/27 08:53:34;;;;;;;0.30;0.30;;;;;;;10.60;100.00;100257.78;5029356;28;20609;-76
2022/09/27 08:56:02;;;;;;;0.30;0.30;;;;;;;10.63;100.00;100257.38;4996640;28;20488;-78
2022/09/27 08:58:34;;;;;;;0.30;0.30;;;;;;;10.67;100.00;100253.31;5010610;28;20103;-77
2022/09/27 09:01:12;;;;;;;0.30;0.30;;;;;;;10.63;100.00;100254.69;4996588;28;20095;-77
2022/09/27 09:03:44;;;;;;;0.30;0.30;;;;;;;10.56;100.00;100251.94;5013021;28;20492;-76
2022/09/27 09:06:33;;;;;;;0.30;0.30;;;;;;;10.52;100.00;100256.03;5014716;28;20475;-76
2022/09/27 09:09:01;;;;;;;0.47;0.47;;;;;;;10.60;100.00;100257.78;5012521;28;20029;-76
2022/09/27 09:14:29;;;;;;;0.32;0.32;;;;;;;10.57;100.00;100257.13;5034008;28;20056;-77
2022/09/27 09:16:55;;;;;;;0.52;0.40;;;;;;;10.58;100.00;100252.56;5032998;28;20084;-77
2022/09/27 09:19:50;;;;;;;0.30;0.30;;;;;;;10.61;100.00;100262.09;5034066;28;20068;-76
2022/09/27 09:22:36;;;;;;;0.30;0.30;;;;;;;10.62;100.00;100253.03;5030946;28;20037;-79
2022/09/27 09:25:36;;;;;;;0.30;0.30;;;;;;;10.73;100.00;100257.94;5030398;28;20038;-78
2022/09/27 09:28:16;;;;;;;0.30;0.30;;;;;;;10.82;100.00;100267.53;5029286;28;20412;-75
2022/09/27 09:31:20;;;;;;;0.30;0.30;;;;;;;10.89;100.00;100255.00;5033504;28;20516;-75
2022/09/27 09:33:51;;;;;;;0.30;0.30;;;;;;;10.97;100.00;100260.25;5047292;28;20037;-76
2022/09/27 09:36:31;;;;;;;0.30;0.30;;;;;;;11.01;100.00;100260.72;5046065;28;20048;-75
2022/09/27 09:39:14;;;;;;;0.30;0.30;;;;;;;11.07;100.00;100259.97;5011982;28;20473;-75
2022/09/27 09:41:58;;;;;;;0.30;0.30;;;;;;;10.95;100.00;100243.47;5025782;28;20044;-75
2022/09/27 09:44:27;;;;;;;0.30;0.30;;;;;;;11.02;100.00;100251.63;5032124;28;20078;-75
2022/09/27 09:46:56;;;;;;;0.30;0.30;;;;;;;11.05;100.00;100245.84;5015205;28;20033;-77
2022/09/27 09:49:28;;;;;;;0.30;0.30;;;;;;;11.17;100.00;100257.78;5032047;28;20471;-77
2022/09/27 09:52:17;;;;;;;0.30;0.30;;;;;;;11.27;100.00;100254.75;5016351;28;20124;-76
2022/09/27 09:54:48;;;;;;;0.30;0.30;;;;;;;11.42;100.00;100258.22;5016272;28;20084;-76
2022/09/27 09:57:17;;;;;;;0.40;0.40;;;;;;;11.43;100.00;100253.66;4999937;28;20025;-76
2022/09/27 10:00:02;;;;;;;0.30;0.30;;;;;;;11.50;100.00;100259.13;5029258;28;20044;-76
2022/09/27 10:02:39;;;;;;;0.30;0.30;;;;;;;11.49;100.00;100247.53;5032187;28;20040;-76
2022/09/27 10:05:05;;;;;;;0.30;0.30;;;;;;;11.54;100.00;100245.06;5015513;28;20395;-76
2022/09/27 10:07:32;;;;;;;0.30;0.30;;;;;;;11.50;100.00;100222.25;4999511;28;20133;-79
2022/09/27 10:09:59;;;;;;;0.30;0.30;;;;;;;11.49;100.00;100235.94;5015685;28;20041;-77
2022/09/27 10:12:26;;;;;;;0.30;0.30;;;;;;;11.46;100.00;100234.44;5031964;28;20033;-76
2022/09/27 10:14:52;;;;;;;0.40;0.40;;;;;;;11.51;100.00;100241.91;5030559;28;20387;-76
2022/09/27 10:17:22;;;;;;;0.30;0.30;;;;;;;11.65;100.00;100236.47;5030453;28;20034;-76
2022/09/27 10:19:51;;;;;;;0.30;0.30;;;;;;;11.77;100.00;100230.53;4999119;28;20042;-76
2022/09/27 10:22:44;;;;;;;0.30;0.30;;;;;;;11.93;100.00;100227.56;5021776;28;20039;-76
2022/09/27 10:25:10;;;;;;;0.30;0.30;;;;;;;12.06;100.00;100234.88;5028819;28;20438;-77
2022/09/27 10:27:45;;;;;;;0.30;0.30;;;;;;;12.15;100.00;100231.03;5015151;28;20476;-79
2022/09/27 10:30:34;;;;;;;0.30;0.30;;;;;;;12.15;100.00;100220.25;4998912;28;20041;-76
2022/09/27 10:33:03;;;;;;;0.30;0.30;;;;;;;12.17;100.00;100223.56;5024106;28;20040;-76
2022/09/27 10:35:29;;;;;;;0.30;0.30;;;;;;;12.23;100.00;100220.06;5015160;28;20057;-76
2022/09/27 10:38:20;;;;;;;0.50;0.40;;;;;;;12.31;100.00;100209.13;5014989;28;20510;-75
2022/09/27 10:40:50;;;;;;;0.30;0.30;;;;;;;12.25;100.00;100209.06;5015185;28;20033;-76
2022/09/27 10:43:29;;;;;;;0.30;0.30;;;;;;;12.29;100.00;100199.56;5014613;28;20100;-76
2022/09/27 10:46:24;;;;;;;0.30;0.30;;;;;;;12.42;100.00;100188.00;5015162;28;20061;-77
2022/09/27 10:49:07;;;;;;;0.30;0.30;;;;;;;12.47;100.00;100174.75;4994595;28;20044;-77
2022/09/27 10:51:33;;;;;;;0.30;0.30;;;;;;;12.60;100.00;100176.66;5031086;28;20029;-78
2022/09/27 10:54:00;;;;;;;0.30;0.30;;;;;;;12.58;100.00;100171.47;5030524;28;20040;-78
2022/09/27 10:56:34;;;;;;;0.30;0.30;;;;;;;12.72;100.00;100175.00;5030142;28;20041;-76
2022/09/27 10:59:01;;;;;;;0.30;0.30;;;;;;;12.81;100.00;100167.56;5014463;28;20040;-75
2022/09/27 11:01:40;;;;;;;0.40;0.40;;;;;;;12.93;100.00;100158.66;5043597;28;20037;-76
2022/09/27 11:04:06;;;;;;;0.32;0.32;;;;;;;13.07;100.00;100167.63;5014591;28;20048;-75
2022/09/27 11:06:37;;;;;;;0.30;0.30;;;;;;;13.13;100.00;100165.94;5011616;28;20387;-76
2022/09/27 11:09:17;;;;;;;0.40;0.40;;;;;;;13.14;100.00;100165.72;5014866;28;20479;-76
2022/09/27 11:11:44;;;;;;;0.32;0.32;;;;;;;13.17;100.00;100159.09;5030911;28;20071;-78
2022/09/27 11:14:24;;;;;;;0.30;0.30;;;;;;;13.30;100.00;100166.41;5030217;28;20399;-76
2022/09/27 11:17:02;;;;;;;0.40;0.40;;;;;;;13.34;100.00;100154.97;5030712;28;20041;-76
2022/09/27 11:19:58;;;;;;;0.30;0.30;;;;;;;13.53;100.00;100147.88;5030681;28;20040;-79
2022/09/27 11:22:35;;;;;;;0.40;0.40;;;;;;;13.74;100.00;100149.50;5030073;28;20021;-78
2022/09/27 11:25:07;;;;;;;22.73;21.98;;;;;;;13.91;100.00;100149.03;5028467;28;20025;-79
2022/09/27 11:28:09;;;;;;;1.00;1.00;;;;;;;13.99;100.00;100136.13;5023132;28;20037;-78
2022/09/27 11:31:02;;;;;;;1.70;1.60;;;;;;;14.25;100.00;100131.66;5030134;28;20064;-76
2022/09/27 11:33:53;;;;;;;1.50;1.40;;;;;;;14.43;100.00;100130.94;5030427;28;20041;-78
2022/09/27 11:36:47;;;;;;;1.33;1.33;;;;;;;14.66;100.00;100125.84;5030048;28;20021;-77
2022/09/27 11:39:24;;;;;;;1.30;1.30;;;;;;;14.63;100.00;100136.25;5030217;28;20043;-76
2022/09/27 11:42:05;;;;;;;1.30;1.30;;;;;;;14.81;100.00;100120.13;5001572;28;20124;-76